Byron, Wyoming
Current Conditions -  °F | °C
As of 4:55 PM on Monday 20 Oct 2014 (Local Time) from KU68 Reporting Station
Clear Clear  
Wind Chill: 75°   Ceiling: Unl
Heat Index: 75°   Visibility: 10mi
Dew Point: 28°   Wind: 8mph
Humidity: 18%   Direction: 140°SE
Pressure: 29.9"   Gusts: NA
Location:  44.8°N, 108.51°W
Report Text: KU68 202255Z AUTO 14007KT 10SM CLR 24/M02 A2990 RMK AO2 PWINO
Loading
Personal Weather Stations






























Interactive Weather Map
Tropical Storm Tracking
New forecast layout! Learn more

10-Day Weather Forecast

Advertisements
Track Severe Weather on mobile